»·PEaware :: N595K KBFL-KFAT

N595K :: KBFL-KFAT

FLIGHT INFORMATION

Flight Status: Arrived
Operator: Privately registered:
United States
More flights under this callsign
Pilot: Logan D. (20254)
Aircraft: Unknown
(PRIM)
More flights by this aircraft type
Origin: KBFL Meadows
United States
Destination: KFAT Fresno Yosemite Intl
United States
More flights between these airports :: More routes between these airports
Route: +
File this flight plan on PilotEdge
Remarks:
Altitude:
(Current/Filed)
0ft
Speed:
(Current/Filed)
0kts
Departed: 13-May-19 10:16 AM
Arrived: 13-May-19 11:03 AM
Distance/Time
Traveled:
87nm/0:47
Distance/Time
To Go:
Arrived

Flight Plot

Page will automatically refresh every two minutes.


Map Options




Map Legend


Flown Route
Filed Route
Departure Airport
Arrival Airport
Navaid (VOR, NDB)
Fix

Horizontal Profiles

Position Reports

Time Latitude Longitude Heading Altitude Ground
Speed
13-May-19 10:02 35.424425 -119.052666 90 462ft 0kts
13-May-19 10:03 35.424425 -119.052666 90 462ft 0kts
13-May-19 10:04 35.424425 -119.052666 90 462ft 0kts
13-May-19 10:05 35.424425 -119.052666 90 462ft 0kts
13-May-19 10:06 35.424425 -119.052666 90 462ft 0kts
13-May-19 10:07 35.424425 -119.052666 90 462ft 0kts
13-May-19 10:08 35.424425 -119.052666 90 462ft 0kts
13-May-19 10:09 35.424425 -119.052666 90 462ft 0kts
13-May-19 10:10 35.424425 -119.052666 90 462ft 0kts
13-May-19 10:11 35.424425 -119.052666 90 462ft 0kts
13-May-19 10:12 35.424083 -119.051915 88 463ft 6kts
13-May-19 10:13 35.424059 -119.049627 91 464ft 8kts
13-May-19 10:14 35.424154 -119.048370 17 467ft 7kts
13-May-19 10:15 35.433057 -119.058759 314 558ft 90kts
13-May-19 10:16 35.453457 -119.085733 313 1895ft 117kts
13-May-19 10:17 35.486922 -119.091198 350 3462ft 125kts
13-May-19 10:18 35.516916 -119.109834 336 5036ft 125kts
13-May-19 10:19 35.549299 -119.128240 325 6095ft 129kts
13-May-19 10:20 35.584590 -119.148612 336 6494ft 154kts
13-May-19 10:21 35.624412 -119.168438 337 6490ft 143kts
13-May-19 10:22 35.657447 -119.184462 336 6490ft 118kts
13-May-19 10:23 35.686946 -119.198633 336 6490ft 110kts
13-May-19 10:24 35.715312 -119.212119 336 6491ft 108kts
13-May-19 10:25 35.743787 -119.225610 336 6494ft 117kts
13-May-19 10:26 35.777931 -119.240255 343 6492ft 137kts
13-May-19 10:27 35.814797 -119.253629 342 6490ft 132kts
13-May-19 10:28 35.848031 -119.258270 354 6491ft 115kts
13-May-19 10:29 35.879233 -119.261131 337 6495ft 110kts
13-May-19 10:30 35.907750 -119.274839 336 6498ft 110kts
13-May-19 10:31 35.936309 -119.288686 336 6500ft 110kts
13-May-19 10:32 35.965085 -119.302704 336 6503ft 111kts
13-May-19 10:33 35.993944 -119.316886 336 6505ft 112kts
13-May-19 10:34 36.022931 -119.331202 336 6520ft 111kts
13-May-19 10:35 36.051789 -119.345363 336 6518ft 111kts
13-May-19 10:36 36.080472 -119.359451 336 6515ft 110kts
13-May-19 10:37 36.109085 -119.373599 336 6512ft 109kts
13-May-19 10:38 36.137718 -119.387925 336 6511ft 114kts
13-May-19 10:39 36.167805 -119.403203 336 6509ft 117kts
13-May-19 10:40 36.198188 -119.418836 333 6508ft 118kts
13-May-19 10:41 36.227647 -119.436994 332 6508ft 118kts
13-May-19 10:43 36.256833 -119.455984 341 6508ft 119kts
13-May-19 10:44 36.289528 -119.465309 346 6508ft 121kts
13-May-19 10:45 36.322391 -119.474037 346 6508ft 119kts
13-May-19 10:46 36.354490 -119.482871 345 6508ft 118kts
13-May-19 10:47 36.385780 -119.494451 332 6508ft 117kts
13-May-19 10:48 36.415198 -119.512590 332 6508ft 118kts
13-May-19 10:49 36.444650 -119.530799 332 6508ft 119kts
13-May-19 10:50 36.474676 -119.549362 332 6508ft 120kts
13-May-19 10:51 36.504773 -119.567923 332 6507ft 121kts
13-May-19 10:52 36.535080 -119.586364 332 6506ft 121kts
13-May-19 10:53 36.566232 -119.601255 2 6503ft 123kts
13-May-19 10:54 36.599299 -119.586934 19 6451ft 128kts
13-May-19 10:55 36.632724 -119.572552 9 5919ft 130kts
13-May-19 10:56 36.667422 -119.571774 346 5144ft 123kts
13-May-19 10:57 36.698169 -119.593068 317 3910ft 137kts
13-May-19 10:57 36.717551 -119.618637 306 2885ft 113kts
13-May-19 10:59 36.739140 -119.655619 306 1652ft 102kts
13-May-19 11:00 36.752951 -119.679934 305 1191ft 68kts
13-May-19 11:00 36.761288 -119.694508 304 772ft 58kts
13-May-19 11:01 36.769880 -119.709461 307 359ft 51kts
13-May-19 11:03 36.776113 -119.720459 286 330ft 16kts
13-May-19 11:03 36.775616 -119.720785 168 329ft 7kts
13-May-19 11:04 36.773770 -119.721610 160 327ft 5kts
13-May-19 11:06 36.773692 -119.721480 122 327ft 0kts
13-May-19 11:06 36.773692 -119.721480 122 327ft 0kts
13-May-19 11:07 36.773692 -119.721480 122 327ft 0kts
13-May-19 11:08 36.773692 -119.721480 122 327ft 0kts
13-May-19 11:09 36.773692 -119.721480 122 327ft 0kts
13-May-19 11:10 36.773692 -119.721480 122 327ft 0kts
13-May-19 11:11 36.773692 -119.721480 122 327ft 0kts
13-May-19 11:12 36.773692 -119.721480 122 327ft 0kts
13-May-19 11:13 36.773692 -119.721480 122 327ft 0kts
13-May-19 11:14 36.773692 -119.721480 122 327ft 0kts
13-May-19 11:15 36.773692 -119.721480 122 327ft 0kts
13-May-19 11:16 36.773692 -119.721480 122 327ft 0kts

Navigation Log

Ident Type
Flight plan parsing failed, navigation log unavailable